createdAt,value
2022-09-23T00:03:04.103Z,10.75
2022-09-23T00:07:07.070Z,10.72
2022-09-23T00:11:12.399Z,10.67
2022-09-23T00:15:16.433Z,10.61
2022-09-23T00:19:20.760Z,10.59
2022-09-23T00:23:23.742Z,10.57
2022-09-23T00:27:26.909Z,10.54
2022-09-23T00:31:31.826Z,10.53
2022-09-23T00:35:36.194Z,10.50
2022-09-23T00:39:39.196Z,10.49
2022-09-23T00:43:45.538Z,10.48
2022-09-23T00:47:52.936Z,10.47
2022-09-23T00:52:03.603Z,10.46
2022-09-23T00:56:11.683Z,10.45
2022-09-23T01:00:15.147Z,10.43
2022-09-23T01:04:18.351Z,10.42
2022-09-23T01:08:24.259Z,10.40
2022-09-23T01:12:37.468Z,10.39
2022-09-23T01:16:45.246Z,10.36
2022-09-23T01:21:07.065Z,10.35
2022-09-23T01:25:47.200Z,10.30
2022-09-23T01:30:08.704Z,10.27
2022-09-23T01:34:21.324Z,10.25
2022-09-23T01:38:35.764Z,10.22
2022-09-23T01:42:44.284Z,10.16
2022-09-23T01:46:51.440Z,10.11
2022-09-23T01:50:59.498Z,10.09
2022-09-23T01:55:09.452Z,10.08
2022-09-23T01:59:18.083Z,10.06
2022-09-23T02:03:26.835Z,10.06
2022-09-23T02:07:38.647Z,10.05
2022-09-23T02:11:45.202Z,10.02
2022-09-23T02:15:52.776Z,10.01
2022-09-23T02:20:01.543Z,10.00
2022-09-23T02:24:13.619Z,9.98
2022-09-23T02:28:21.007Z,9.95
2022-09-23T02:32:33.099Z,9.95
2022-09-23T02:36:46.075Z,9.95
2022-09-23T02:40:58.714Z,9.94
2022-09-23T02:45:01.978Z,9.92
2022-09-23T02:49:11.209Z,9.88
2022-09-23T02:53:15.787Z,9.84
2022-09-23T02:57:20.792Z,9.80
2022-09-23T03:01:33.867Z,9.77
2022-09-23T03:05:41.397Z,9.74
2022-09-23T03:09:55.884Z,9.69
2022-09-23T03:14:17.560Z,9.64
2022-09-23T03:18:28.455Z,9.57
2022-09-23T03:22:34.807Z,9.54
2022-09-23T03:26:40.891Z,9.52
2022-09-23T03:30:45.680Z,9.49
2022-09-23T03:34:51.751Z,9.45
2022-09-23T03:39:03.873Z,9.43
2022-09-23T03:43:07.173Z,9.40
2022-09-23T03:47:14.620Z,9.39
2022-09-23T03:51:23.829Z,9.35
2022-09-23T03:55:27.019Z,9.32
2022-09-23T03:59:31.469Z,9.30
2022-09-23T04:03:35.858Z,9.29
2022-09-23T04:07:39.063Z,9.27
2022-09-23T04:11:42.320Z,9.22
2022-09-23T04:15:45.439Z,9.21
2022-09-23T04:19:50.241Z,9.17
2022-09-23T04:23:53.448Z,9.13
2022-09-23T04:27:57.277Z,9.10
2022-09-23T04:32:00.301Z,9.09
2022-09-23T04:36:04.990Z,9.07
2022-09-23T04:40:09.646Z,9.03
2022-09-23T04:44:13.608Z,9.00
2022-09-23T04:48:17.608Z,8.97
2022-09-23T04:52:22.119Z,8.93
2022-09-23T04:56:26.397Z,8.89
2022-09-23T05:00:29.694Z,8.85
2022-09-23T05:04:32.672Z,8.80
2022-09-23T05:08:37.496Z,8.80
2022-09-23T05:12:40.767Z,8.78
2022-09-23T05:16:43.867Z,8.78
2022-09-23T05:20:46.862Z,8.79
2022-09-23T05:24:51.210Z,8.77
2022-09-23T05:28:54.808Z,8.78
2022-09-23T05:32:57.811Z,8.79
2022-09-23T05:37:01.496Z,8.81
2022-09-23T05:41:07.810Z,8.84
2022-09-23T05:45:11.078Z,8.85
2022-09-23T05:49:14.031Z,8.85
2022-09-23T05:53:17.190Z,8.87
2022-09-23T05:57:21.755Z,8.95
2022-09-23T06:01:27.088Z,8.97
2022-09-23T06:05:31.024Z,9.01
2022-09-23T06:09:36.664Z,9.05
2022-09-23T06:13:42.448Z,9.10
2022-09-23T06:17:46.083Z,9.15
2022-09-23T06:21:50.050Z,9.21
2022-09-23T06:25:52.992Z,9.29
2022-09-23T06:29:57.699Z,9.35
2022-09-23T06:34:16.495Z,9.41
2022-09-23T06:38:19.840Z,9.49
2022-09-23T06:42:22.836Z,9.57
2022-09-23T06:46:28.012Z,9.63
2022-09-23T06:50:31.237Z,9.73
2022-09-23T06:54:34.424Z,9.89
2022-09-23T06:58:39.239Z,10.02
2022-09-23T07:02:43.641Z,10.12
2022-09-23T07:06:46.654Z,10.24
2022-09-23T07:10:52.996Z,10.30
2022-09-23T07:14:57.278Z,10.43
2022-09-23T07:19:02.611Z,10.60
2022-09-23T07:23:05.914Z,10.76
2022-09-23T07:27:08.890Z,10.89
2022-09-23T07:31:14.781Z,11.03
2022-09-23T07:35:20.254Z,11.21
2022-09-23T07:39:23.442Z,11.32
2022-09-23T07:43:27.511Z,11.50
2022-09-23T07:47:31.569Z,11.64
2022-09-23T07:51:38.287Z,11.78
2022-09-23T07:55:41.455Z,11.94
2022-09-23T07:59:44.567Z,12.13
2022-09-23T08:03:47.527Z,12.27
2022-09-23T08:07:51.893Z,12.36
2022-09-23T08:11:55.541Z,12.45
2022-09-23T08:15:59.010Z,12.56
2022-09-23T08:20:02.340Z,12.71
2022-09-23T08:24:07.638Z,12.81
2022-09-23T08:28:11.717Z,12.94
2022-09-23T08:32:14.679Z,13.09
2022-09-23T08:36:17.664Z,13.16
2022-09-23T08:40:22.276Z,13.27
2022-09-23T08:44:31.643Z,13.34
2022-09-23T08:48:37.445Z,13.52
2022-09-23T08:52:48.987Z,13.61
2022-09-23T08:56:55.428Z,13.75
2022-09-23T09:01:10.098Z,13.90
2022-09-23T09:05:14.756Z,14.06
2022-09-23T09:09:24.603Z,14.20
2022-09-23T09:13:33.163Z,14.32
2022-09-23T09:17:39.787Z,14.43
2022-09-23T09:21:44.287Z,14.56
2022-09-23T09:25:50.499Z,14.71
2022-09-23T09:29:56.481Z,14.80
2022-09-23T09:34:04.573Z,14.97
2022-09-23T09:38:07.915Z,15.09
2022-09-23T09:42:18.536Z,15.24
2022-09-23T09:46:37.007Z,15.40
2022-09-23T09:50:47.131Z,15.51
2022-09-23T09:54:51.042Z,15.67
2022-09-23T09:58:56.290Z,15.78
2022-09-23T10:03:04.023Z,15.92
2022-09-23T10:07:12.709Z,16.04
2022-09-23T10:11:17.498Z,15.93
2022-09-23T10:15:34.660Z,15.99
2022-09-23T10:19:45.338Z,16.11
2022-09-23T10:23:52.481Z,16.27
2022-09-23T10:27:55.485Z,16.34
2022-09-23T10:32:21.710Z,16.50
2022-09-23T10:36:26.641Z,16.56
2022-09-23T10:40:50.693Z,16.65
2022-09-23T10:45:21.221Z,16.66
2022-09-23T10:49:46.291Z,16.69
2022-09-23T10:54:00.182Z,16.79
2022-09-23T10:58:30.549Z,16.93
2022-09-23T11:02:49.315Z,17.03
2022-09-23T11:07:08.873Z,17.11
2022-09-23T11:11:25.787Z,17.17
2022-09-23T11:15:39.639Z,17.33
2022-09-23T11:20:28.223Z,17.39
2022-09-23T11:24:48.886Z,17.53
2022-09-23T11:29:19.814Z,17.59
2022-09-23T11:33:35.945Z,17.61
2022-09-23T11:37:44.085Z,17.71
2022-09-23T11:41:48.267Z,17.80
2022-09-23T11:45:59.758Z,17.79
2022-09-23T11:50:07.347Z,17.88
2022-09-23T11:54:20.760Z,18.01
2022-09-23T11:58:27.466Z,18.02
2022-09-23T12:03:00.269Z,17.99
2022-09-23T12:07:14.698Z,18.01
2022-09-23T12:11:27.676Z,18.09
2022-09-23T12:15:45.499Z,18.21
2022-09-23T12:20:13.884Z,18.23
2022-09-23T12:24:28.924Z,18.26
2022-09-23T12:28:37.629Z,18.34
2022-09-23T12:32:42.281Z,18.40
2022-09-23T12:36:47.179Z,18.42
2022-09-23T12:40:51.227Z,18.43
2022-09-23T12:45:20.655Z,18.40
2022-09-23T12:49:26.266Z,18.42
2022-09-23T12:53:56.948Z,18.38
2022-09-23T12:57:59.955Z,18.39
2022-09-23T13:02:27.549Z,18.37
2022-09-23T13:06:38.576Z,18.42
2022-09-23T13:10:48.343Z,18.43
2022-09-23T13:14:55.811Z,18.39
2022-09-23T13:19:01.610Z,18.32
2022-09-23T13:23:32.191Z,18.34
2022-09-23T13:27:36.720Z,18.30
2022-09-23T13:31:39.810Z,18.30
2022-09-23T13:35:50.692Z,18.26
2022-09-23T13:39:53.681Z,18.27
2022-09-23T13:43:58.859Z,18.23
2022-09-23T13:48:06.193Z,18.23
2022-09-23T13:52:25.251Z,18.22
2022-09-23T13:56:31.322Z,18.19
2022-09-23T14:00:37.524Z,18.14
2022-09-23T14:04:40.823Z,18.09
2022-09-23T14:08:48.262Z,18.01
2022-09-23T14:12:53.620Z,17.98
2022-09-23T14:16:57.973Z,17.94
2022-09-23T14:21:01.052Z,17.87
2022-09-23T14:25:06.288Z,17.83
2022-09-23T14:29:14.876Z,17.83
2022-09-23T14:33:21.949Z,17.83
2022-09-23T14:37:49.598Z,17.81
2022-09-23T14:41:54.162Z,17.77
2022-09-23T14:45:59.409Z,17.70
2022-09-23T14:50:22.705Z,17.67
2022-09-23T14:54:35.773Z,17.63
2022-09-23T14:58:50.950Z,17.59
2022-09-23T15:03:00.259Z,17.52
2022-09-23T15:07:09.067Z,17.53
2022-09-23T15:11:13.089Z,17.55
2022-09-23T15:15:19.290Z,17.55
2022-09-23T15:19:23.999Z,17.51
2022-09-23T15:23:35.811Z,17.46
2022-09-23T15:27:39.020Z,17.40
2022-09-23T15:31:43.494Z,17.38
2022-09-23T15:35:49.290Z,17.33
2022-09-23T15:39:52.299Z,17.32
2022-09-23T15:43:56.441Z,17.33
2022-09-23T15:48:07.331Z,17.32
2022-09-23T15:52:12.336Z,17.30
2022-09-23T15:56:15.538Z,17.27
2022-09-23T16:00:19.158Z,17.26
2022-09-23T16:04:23.800Z,17.22
2022-09-23T16:08:26.833Z,17.15
2022-09-23T16:12:30.114Z,17.10
2022-09-23T16:16:33.371Z,17.05
2022-09-23T16:20:41.980Z,17.00
2022-09-23T16:24:45.224Z,16.98
2022-09-23T16:28:50.314Z,16.96
2022-09-23T16:32:54.137Z,16.90
2022-09-23T16:36:58.877Z,16.86
2022-09-23T16:41:03.059Z,16.77
2022-09-23T16:45:07.527Z,16.69
2022-09-23T16:49:12.331Z,16.62
2022-09-23T16:53:18.040Z,16.54
2022-09-23T16:57:21.219Z,16.50
2022-09-23T17:01:49.311Z,16.44
2022-09-23T17:05:52.462Z,16.32
2022-09-23T17:09:56.875Z,16.21
2022-09-23T17:14:00.865Z,16.14
2022-09-23T17:18:04.060Z,16.07
2022-09-23T17:22:07.192Z,15.97
2022-09-23T17:26:12.536Z,15.89
2022-09-23T17:30:15.622Z,15.82
2022-09-23T17:34:19.673Z,15.75
2022-09-23T17:38:27.954Z,15.70
2022-09-23T17:42:33.424Z,15.66
2022-09-23T17:46:36.591Z,15.57
2022-09-23T17:50:39.788Z,15.51
2022-09-23T17:54:42.987Z,15.46
2022-09-23T17:58:48.884Z,15.37
2022-09-23T18:02:52.946Z,15.27
2022-09-23T18:06:55.969Z,15.20
2022-09-23T18:10:59.150Z,15.12
2022-09-23T18:15:03.770Z,15.03
2022-09-23T18:19:07.870Z,14.95
2022-09-23T18:23:12.317Z,14.91
2022-09-23T18:27:15.301Z,14.87
2022-09-23T18:31:20.607Z,14.81
2022-09-23T18:35:23.779Z,14.78
2022-09-23T18:39:26.796Z,14.74
2022-09-23T18:43:37.539Z,14.71
2022-09-23T18:48:02.777Z,14.63
2022-09-23T18:52:05.744Z,14.57
2022-09-23T18:56:10.181Z,14.52
2022-09-23T19:00:13.806Z,14.45
2022-09-23T19:04:20.425Z,14.42
2022-09-23T19:08:24.018Z,14.39
2022-09-23T19:12:26.997Z,14.35
2022-09-23T19:16:31.731Z,14.34
2022-09-23T19:20:36.306Z,14.29
2022-09-23T19:24:39.548Z,14.25
2022-09-23T19:28:42.726Z,14.15
2022-09-23T19:32:46.297Z,14.07
2022-09-23T19:36:51.281Z,14.00
2022-09-23T19:40:54.618Z,13.93
2022-09-23T19:44:57.780Z,13.85
2022-09-23T19:49:01.811Z,13.79
2022-09-23T19:53:08.754Z,13.75
2022-09-23T19:57:11.982Z,13.68
2022-09-23T20:01:16.241Z,13.59
2022-09-23T20:05:20.519Z,13.53
2022-09-23T20:09:25.548Z,13.48
2022-09-23T20:13:28.818Z,13.40
2022-09-23T20:17:32.597Z,13.33
2022-09-23T20:21:35.919Z,13.26
2022-09-23T20:26:09.694Z,13.19
2022-09-23T20:30:13.261Z,13.13
2022-09-23T20:34:16.235Z,13.06
2022-09-23T20:38:19.612Z,13.02
2022-09-23T20:42:24.277Z,13.01
2022-09-23T20:46:28.651Z,12.98
2022-09-23T20:50:31.792Z,12.92
2022-09-23T20:54:34.989Z,12.87
2022-09-23T20:58:40.278Z,12.79
2022-09-23T21:02:44.936Z,12.71
2022-09-23T21:06:48.102Z,12.65
2022-09-23T21:10:55.162Z,12.56
2022-09-23T21:14:59.519Z,12.51
2022-09-23T21:19:03.849Z,12.49
2022-09-23T21:23:07.323Z,12.43
2022-09-23T21:27:10.411Z,12.39
2022-09-23T21:31:22.889Z,12.39
2022-09-23T21:35:26.078Z,12.37
2022-09-23T21:39:29.020Z,12.33
2022-09-23T21:43:33.627Z,12.29
2022-09-23T21:47:37.908Z,12.22
2022-09-23T21:51:41.993Z,12.18
2022-09-23T21:55:48.819Z,12.14
2022-09-23T21:59:52.713Z,12.09
2022-09-23T22:03:59.141Z,12.03
2022-09-23T22:08:02.686Z,11.96
2022-09-23T22:12:11.185Z,11.91
2022-09-23T22:16:16.804Z,11.85
2022-09-23T22:20:21.102Z,11.79
2022-09-23T22:24:24.271Z,11.74
2022-09-23T22:28:44.916Z,11.68
2022-09-23T22:32:52.878Z,11.64
2022-09-23T22:37:00.952Z,11.61
2022-09-23T22:41:04.113Z,11.54
2022-09-23T22:45:08.239Z,11.45
2022-09-23T22:49:12.315Z,11.41
2022-09-23T22:53:16.841Z,11.36
2022-09-23T22:57:20.374Z,11.33
2022-09-23T23:01:23.764Z,11.31
2022-09-23T23:05:26.722Z,11.28
2022-09-23T23:09:31.270Z,11.26
2022-09-23T23:13:34.428Z,11.24
2022-09-23T23:17:38.213Z,11.23
2022-09-23T23:21:43.361Z,11.23
2022-09-23T23:25:47.820Z,11.20
2022-09-23T23:29:50.721Z,11.19
2022-09-23T23:33:53.952Z,11.13
2022-09-23T23:37:56.928Z,11.09
2022-09-23T23:42:02.208Z,11.05
2022-09-23T23:46:07.349Z,11.03
2022-09-23T23:50:10.852Z,10.99
2022-09-23T23:54:15.224Z,10.93
2022-09-23T23:58:20.003Z,10.85
